sensor_id;sensor_type;location;lat;lon;timestamp;pressure;altitude;pressure_sealevel;temperature;humidity
34328;BME280;20588;48.840;10.064;2023-12-20T00:01:55;96427.19;;;6.03;nan
34328;BME280;20588;48.840;10.064;2023-12-20T00:04:21;96423.25;;;6.01;nan
34328;BME280;20588;48.840;10.064;2023-12-20T00:06:47;96417.34;;;6.00;nan
34328;BME280;20588;48.840;10.064;2023-12-20T00:09:13;96404.41;;;6.02;nan
34328;BME280;20588;48.840;10.064;2023-12-20T00:11:39;96397.72;;;6.01;nan
34328;BME280;20588;48.840;10.064;2023-12-20T00:14:05;96400.28;;;6.01;nan
34328;BME280;20588;48.840;10.064;2023-12-20T00:16:31;96398.53;;;6.01;nan
34328;BME280;20588;48.840;10.064;2023-12-20T00:18:57;96399.28;;;6.02;nan
34328;BME280;20588;48.840;10.064;2023-12-20T00:21:23;96391.81;;;6.00;nan
34328;BME280;20588;48.840;10.064;2023-12-20T00:23:49;96396.16;;;6.00;nan
34328;BME280;20588;48.840;10.064;2023-12-20T00:26:15;96395.97;;;6.01;nan
34328;BME280;20588;48.840;10.064;2023-12-20T00:28:41;96388.88;;;6.03;nan
34328;BME280;20588;48.840;10.064;2023-12-20T00:31:08;96380.28;;;6.04;nan
34328;BME280;20588;48.840;10.064;2023-12-20T00:33:34;96369.88;;;6.06;nan
34328;BME280;20588;48.840;10.064;2023-12-20T00:36:00;96360.81;;;6.03;nan
34328;BME280;20588;48.840;10.064;2023-12-20T00:38:27;96362.78;;;6.01;nan
34328;BME280;20588;48.840;10.064;2023-12-20T00:40:53;96370.25;;;6.03;nan
34328;BME280;20588;48.840;10.064;2023-12-20T00:43:19;96368.88;;;6.07;nan
34328;BME280;20588;48.840;10.064;2023-12-20T00:45:45;96369.69;;;6.07;nan
34328;BME280;20588;48.840;10.064;2023-12-20T00:48:11;96367.34;;;6.12;nan
34328;BME280;20588;48.840;10.064;2023-12-20T00:50:37;96371.06;;;6.10;nan
34328;BME280;20588;48.840;10.064;2023-12-20T00:53:03;96380.50;;;6.09;nan
34328;BME280;20588;48.840;10.064;2023-12-20T00:55:29;96363.22;;;6.11;nan
34328;BME280;20588;48.840;10.064;2023-12-20T00:57:55;96364.97;;;6.11;nan
34328;BME280;20588;48.840;10.064;2023-12-20T01:00:21;96363.22;;;6.11;nan
34328;BME280;20588;48.840;10.064;2023-12-20T01:02:48;96356.38;;;6.12;nan
34328;BME280;20588;48.840;10.064;2023-12-20T01:05:15;96358.13;;;6.11;nan
34328;BME280;20588;48.840;10.064;2023-12-20T01:07:41;96346.16;;;6.12;nan
34328;BME280;20588;48.840;10.064;2023-12-20T01:10:08;96349.66;;;6.11;nan
34328;BME280;20588;48.840;10.064;2023-12-20T01:12:35;96358.91;;;6.12;nan
34328;BME280;20588;48.840;10.064;2023-12-20T01:15:01;96357.94;;;6.13;nan
34328;BME280;20588;48.840;10.064;2023-12-20T01:17:27;96347.28;;;6.09;nan
34328;BME280;20588;48.840;10.064;2023-12-20T01:19:53;96352.19;;;6.04;nan
34328;BME280;20588;48.840;10.064;2023-12-20T01:22:19;96354.91;;;6.03;nan
34328;BME280;20588;48.840;10.064;2023-12-20T01:24:45;96367.06;;;6.01;nan
34328;BME280;20588;48.840;10.064;2023-12-20T01:27:11;96372.06;;;6.09;nan
34328;BME280;20588;48.840;10.064;2023-12-20T01:29:37;96371.44;;;6.07;nan
34328;BME280;20588;48.840;10.064;2023-12-20T01:32:04;96363.91;;;5.99;nan
34328;BME280;20588;48.840;10.064;2023-12-20T01:34:30;96370.19;;;5.96;nan
34328;BME280;20588;48.840;10.064;2023-12-20T01:36:56;96369.56;;;5.94;nan
34328;BME280;20588;48.840;10.064;2023-12-20T01:39:23;96373.53;;;5.97;nan
34328;BME280;20588;48.840;10.064;2023-12-20T01:41:49;96367.19;;;5.93;nan
34328;BME280;20588;48.840;10.064;2023-12-20T01:44:15;96362.34;;;5.98;nan
34328;BME280;20588;48.840;10.064;2023-12-20T01:46:41;96363.88;;;5.92;nan
34328;BME280;20588;48.840;10.064;2023-12-20T01:49:08;96369.16;;;5.91;nan
34328;BME280;20588;48.840;10.064;2023-12-20T01:51:34;96375.59;;;5.87;nan
34328;BME280;20588;48.840;10.064;2023-12-20T01:54:01;96385.19;;;5.85;nan
34328;BME280;20588;48.840;10.064;2023-12-20T01:56:29;96382.81;;;5.83;nan
34328;BME280;20588;48.840;10.064;2023-12-20T01:58:56;96377.72;;;5.83;nan
34328;BME280;20588;48.840;10.064;2023-12-20T02:01:22;96372.44;;;5.85;nan
34328;BME280;20588;48.840;10.064;2023-12-20T02:03:49;96379.91;;;5.86;nan
34328;BME280;20588;48.840;10.064;2023-12-20T02:06:15;96383.63;;;5.84;nan
34328;BME280;20588;48.840;10.064;2023-12-20T02:08:41;96386.38;;;5.82;nan
34328;BME280;20588;48.840;10.064;2023-12-20T02:11:08;96384.59;;;5.83;nan
34328;BME280;20588;48.840;10.064;2023-12-20T02:13:34;96371.47;;;5.86;nan
34328;BME280;20588;48.840;10.064;2023-12-20T02:16:00;96377.53;;;5.85;nan
34328;BME280;20588;48.840;10.064;2023-12-20T02:18:27;96371.38;;;5.79;nan
34328;BME280;20588;48.840;10.064;2023-12-20T02:20:53;96366.28;;;5.79;nan
34328;BME280;20588;48.840;10.064;2023-12-20T02:23:19;96367.25;;;5.78;nan
34328;BME280;20588;48.840;10.064;2023-12-20T02:25:45;96360.75;;;5.76;nan
34328;BME280;20588;48.840;10.064;2023-12-20T02:28:11;96369.81;;;5.78;nan
34328;BME280;20588;48.840;10.064;2023-12-20T02:30:37;96369.56;;;5.73;nan
34328;BME280;20588;48.840;10.064;2023-12-20T02:33:07;96364.47;;;5.73;nan
34328;BME280;20588;48.840;10.064;2023-12-20T02:35:34;96352.25;;;5.69;nan
34328;BME280;20588;48.840;10.064;2023-12-20T02:38:00;96349.88;;;5.67;nan
34328;BME280;20588;48.840;10.064;2023-12-20T02:40:26;96357.97;;;5.71;nan
34328;BME280;20588;48.840;10.064;2023-12-20T02:42:52;96355.63;;;5.76;nan
34328;BME280;20588;48.840;10.064;2023-12-20T02:45:18;96364.28;;;5.75;nan
34328;BME280;20588;48.840;10.064;2023-12-20T02:47:44;96358.75;;;5.71;nan
34328;BME280;20588;48.840;10.064;2023-12-20T02:50:10;96361.72;;;5.75;nan
34328;BME280;20588;48.840;10.064;2023-12-20T02:52:36;96364.81;;;5.70;nan
34328;BME280;20588;48.840;10.064;2023-12-20T02:55:02;96366.00;;;5.68;nan
34328;BME280;20588;48.840;10.064;2023-12-20T02:57:28;96366.94;;;5.67;nan
34328;BME280;20588;48.840;10.064;2023-12-20T02:59:55;96361.47;;;5.70;nan
34328;BME280;20588;48.840;10.064;2023-12-20T03:02:21;96365.81;;;5.69;nan
34328;BME280;20588;48.840;10.064;2023-12-20T03:04:47;96363.44;;;5.68;nan
34328;BME280;20588;48.840;10.064;2023-12-20T03:07:13;96362.81;;;5.66;nan
34328;BME280;20588;48.840;10.064;2023-12-20T03:09:39;96347.50;;;5.66;nan
34328;BME280;20588;48.840;10.064;2023-12-20T03:12:05;96347.88;;;5.63;nan
34328;BME280;20588;48.840;10.064;2023-12-20T03:14:31;96348.84;;;5.62;nan
34328;BME280;20588;48.840;10.064;2023-12-20T03:16:57;96349.88;;;5.67;nan
34328;BME280;20588;48.840;10.064;2023-12-20T03:19:23;96362.44;;;5.69;nan
34328;BME280;20588;48.840;10.064;2023-12-20T03:21:49;96361.06;;;5.66;nan
34328;BME280;20588;48.840;10.064;2023-12-20T03:24:15;96363.63;;;5.66;nan
34328;BME280;20588;48.840;10.064;2023-12-20T03:26:41;96363.81;;;5.65;nan
34328;BME280;20588;48.840;10.064;2023-12-20T03:29:07;96365.38;;;5.66;nan
34328;BME280;20588;48.840;10.064;2023-12-20T03:31:33;96365.75;;;5.63;nan
34328;BME280;20588;48.840;10.064;2023-12-20T03:33:59;96366.94;;;5.67;nan
34328;BME280;20588;48.840;10.064;2023-12-20T03:36:25;96366.72;;;5.62;nan
34328;BME280;20588;48.840;10.064;2023-12-20T03:38:51;96367.69;;;5.60;nan
34328;BME280;20588;48.840;10.064;2023-12-20T03:41:17;96365.50;;;5.57;nan
34328;BME280;20588;48.840;10.064;2023-12-20T03:43:43;96371.03;;;5.61;nan
34328;BME280;20588;48.840;10.064;2023-12-20T03:46:09;96374.19;;;5.63;nan
34328;BME280;20588;48.840;10.064;2023-12-20T03:48:35;96378.75;;;5.68;nan
34328;BME280;20588;48.840;10.064;2023-12-20T03:51:01;96373.41;;;5.63;nan
34328;BME280;20588;48.840;10.064;2023-12-20T03:53:27;96373.41;;;5.63;nan
34328;BME280;20588;48.840;10.064;2023-12-20T03:55:53;96366.72;;;5.62;nan
34328;BME280;20588;48.840;10.064;2023-12-20T03:58:19;96364.91;;;5.55;nan
34328;BME280;20588;48.840;10.064;2023-12-20T04:00:46;96363.19;;;5.63;nan
34328;BME280;20588;48.840;10.064;2023-12-20T04:03:12;96366.47;;;5.56;nan
34328;BME280;20588;48.840;10.064;2023-12-20T04:05:41;96373.13;;;5.57;nan
34328;BME280;20588;48.840;10.064;2023-12-20T04:08:09;96369.38;;;5.53;nan
34328;BME280;20588;48.840;10.064;2023-12-20T04:10:35;96368.53;;;5.46;nan
34328;BME280;20588;48.840;10.064;2023-12-20T04:13:03;96383.84;;;5.46;nan
34328;BME280;20588;48.840;10.064;2023-12-20T04:15:29;96383.41;;;5.43;nan
34328;BME280;20588;48.840;10.064;2023-12-20T04:17:55;96386.31;;;5.40;nan
34328;BME280;20588;48.840;10.064;2023-12-20T04:20:21;96395.31;;;5.36;nan
34328;BME280;20588;48.840;10.064;2023-12-20T04:22:47;96389.59;;;5.34;nan
34328;BME280;20588;48.840;10.064;2023-12-20T04:25:13;96398.81;;;5.35;nan
34328;BME280;20588;48.840;10.064;2023-12-20T04:27:39;96399.00;;;5.33;nan
34328;BME280;20588;48.840;10.064;2023-12-20T04:30:06;96400.16;;;5.31;nan
34328;BME280;20588;48.840;10.064;2023-12-20T04:32:32;96399.72;;;5.27;nan
34328;BME280;20588;48.840;10.064;2023-12-20T04:34:58;96402.03;;;5.22;nan
34328;BME280;20588;48.840;10.064;2023-12-20T04:37:24;96407.50;;;5.19;nan
34328;BME280;20588;48.840;10.064;2023-12-20T04:39:50;96407.06;;;5.16;nan
34328;BME280;20588;48.840;10.064;2023-12-20T04:42:16;96403.25;;;5.12;nan
34328;BME280;20588;48.840;10.064;2023-12-20T04:44:42;96395.88;;;5.17;nan
34328;BME280;20588;48.840;10.064;2023-12-20T04:47:09;96397.22;;;5.13;nan
34328;BME280;20588;48.840;10.064;2023-12-20T04:49:35;96398.34;;;5.10;nan
34328;BME280;20588;48.840;10.064;2023-12-20T04:52:01;96406.16;;;5.09;nan
34328;BME280;20588;48.840;10.064;2023-12-20T04:54:27;96410.59;;;5.15;nan
34328;BME280;20588;48.840;10.064;2023-12-20T04:56:53;96421.91;;;5.12;nan
34328;BME280;20588;48.840;10.064;2023-12-20T04:59:19;96424.56;;;5.04;nan
34328;BME280;20588;48.840;10.064;2023-12-20T05:01:45;96430.63;;;5.03;nan
34328;BME280;20588;48.840;10.064;2023-12-20T05:04:11;96419.47;;;5.04;nan
34328;BME280;20588;48.840;10.064;2023-12-20T05:06:37;96429.66;;;5.04;nan
34328;BME280;20588;48.840;10.064;2023-12-20T05:09:04;96428.44;;;5.00;nan
34328;BME280;20588;48.840;10.064;2023-12-20T05:11:30;96428.88;;;5.04;nan
34328;BME280;20588;48.840;10.064;2023-12-20T05:13:56;96433.34;;;5.02;nan
34328;BME280;20588;48.840;10.064;2023-12-20T05:16:22;96445.66;;;4.98;nan
34328;BME280;20588;48.840;10.064;2023-12-20T05:18:49;96453.47;;;4.97;nan
34328;BME280;20588;48.840;10.064;2023-12-20T05:21:18;96447.63;;;4.96;nan
34328;BME280;20588;48.840;10.064;2023-12-20T05:23:45;96439.84;;;5.04;nan
34328;BME280;20588;48.840;10.064;2023-12-20T05:26:11;96439.44;;;5.01;nan
34328;BME280;20588;48.840;10.064;2023-12-20T05:28:37;96441.72;;;4.96;nan
34328;BME280;20588;48.840;10.064;2023-12-20T05:31:03;96442.06;;;4.93;nan
34328;BME280;20588;48.840;10.064;2023-12-20T05:33:29;96438.72;;;4.92;nan
34328;BME280;20588;48.840;10.064;2023-12-20T05:35:55;96439.69;;;4.91;nan
34328;BME280;20588;48.840;10.064;2023-12-20T05:38:21;96456.56;;;4.92;nan
34328;BME280;20588;48.840;10.064;2023-12-20T05:40:47;96450.69;;;4.92;nan
34328;BME280;20588;48.840;10.064;2023-12-20T05:43:13;96457.38;;;4.93;nan
34328;BME280;20588;48.840;10.064;2023-12-20T05:45:39;96463.63;;;4.90;nan
34328;BME280;20588;48.840;10.064;2023-12-20T05:48:05;96458.53;;;4.90;nan
34328;BME280;20588;48.840;10.064;2023-12-20T05:50:31;96462.63;;;4.91;nan
34328;BME280;20588;48.840;10.064;2023-12-20T05:52:57;96469.31;;;4.92;nan
34328;BME280;20588;48.840;10.064;2023-12-20T05:55:23;96462.28;;;4.94;nan
34328;BME280;20588;48.840;10.064;2023-12-20T05:57:49;96468.53;;;4.92;nan
34328;BME280;20588;48.840;10.064;2023-12-20T06:00:16;96475.03;;;4.94;nan
34328;BME280;20588;48.840;10.064;2023-12-20T06:02:42;96479.50;;;4.92;nan
34328;BME280;20588;48.840;10.064;2023-12-20T06:05:08;96474.16;;;5.02;nan
34328;BME280;20588;48.840;10.064;2023-12-20T06:07:34;96488.06;;;4.99;nan
34328;BME280;20588;48.840;10.064;2023-12-20T06:10:00;96487.44;;;4.97;nan
34328;BME280;20588;48.840;10.064;2023-12-20T06:12:27;96487.59;;;4.96;nan
34328;BME280;20588;48.840;10.064;2023-12-20T06:14:54;96492.69;;;4.96;nan
34328;BME280;20588;48.840;10.064;2023-12-20T06:17:20;96495.06;;;4.97;nan
34328;BME280;20588;48.840;10.064;2023-12-20T06:19:46;96502.91;;;4.96;nan
34328;BME280;20588;48.840;10.064;2023-12-20T06:22:14;96499.81;;;5.00;nan
34328;BME280;20588;48.840;10.064;2023-12-20T06:24:40;96503.78;;;5.03;nan
34328;BME280;20588;48.840;10.064;2023-12-20T06:27:06;96507.13;;;5.03;nan
34328;BME280;20588;48.840;10.064;2023-12-20T06:29:32;96506.41;;;5.09;nan
34328;BME280;20588;48.840;10.064;2023-12-20T06:32:00;96499.13;;;5.06;nan
34328;BME280;20588;48.840;10.064;2023-12-20T06:34:26;96501.94;;;5.11;nan
34328;BME280;20588;48.840;10.064;2023-12-20T06:36:52;96506.78;;;5.06;nan
34328;BME280;20588;48.840;10.064;2023-12-20T06:39:18;96495.69;;;5.14;nan
34328;BME280;20588;48.840;10.064;2023-12-20T06:41:44;96499.75;;;5.08;nan
34328;BME280;20588;48.840;10.064;2023-12-20T06:44:10;96500.69;;;5.07;nan
34328;BME280;20588;48.840;10.064;2023-12-20T06:46:36;96509.31;;;5.06;nan
34328;BME280;20588;48.840;10.064;2023-12-20T06:49:02;96516.16;;;5.06;nan
34328;BME280;20588;48.840;10.064;2023-12-20T06:51:28;96516.44;;;5.11;nan
34328;BME280;20588;48.840;10.064;2023-12-20T06:53:56;96522.88;;;5.07;nan
34328;BME280;20588;48.840;10.064;2023-12-20T06:56:23;96525.25;;;5.08;nan
34328;BME280;20588;48.840;10.064;2023-12-20T06:58:49;96528.56;;;5.09;nan
34328;BME280;20588;48.840;10.064;2023-12-20T07:01:16;96526.00;;;5.09;nan
34328;BME280;20588;48.840;10.064;2023-12-20T07:03:42;96521.09;;;5.07;nan
34328;BME280;20588;48.840;10.064;2023-12-20T07:06:09;96527.16;;;5.06;nan
34328;BME280;20588;48.840;10.064;2023-12-20T07:08:35;96528.56;;;5.09;nan
34328;BME280;20588;48.840;10.064;2023-12-20T07:11:01;96527.63;;;5.10;nan
34328;BME280;20588;48.840;10.064;2023-12-20T07:13:27;96531.38;;;5.14;nan
34328;BME280;20588;48.840;10.064;2023-12-20T07:15:53;96540.34;;;5.24;nan
34328;BME280;20588;48.840;10.064;2023-12-20T07:18:19;96542.91;;;5.24;nan
34328;BME280;20588;48.840;10.064;2023-12-20T07:20:45;96556.47;;;5.25;nan
34328;BME280;20588;48.840;10.064;2023-12-20T07:23:11;96556.47;;;5.25;nan
34328;BME280;20588;48.840;10.064;2023-12-20T07:25:37;96554.00;;;5.31;nan
34328;BME280;20588;48.840;10.064;2023-12-20T07:28:03;96559.09;;;5.31;nan
34328;BME280;20588;48.840;10.064;2023-12-20T07:30:30;96553.38;;;5.29;nan
34328;BME280;20588;48.840;10.064;2023-12-20T07:32:56;96557.69;;;5.29;nan
34328;BME280;20588;48.840;10.064;2023-12-20T07:35:25;96557.69;;;5.29;nan
34328;BME280;20588;48.840;10.064;2023-12-20T07:37:51;96568.69;;;5.29;nan
34328;BME280;20588;48.840;10.064;2023-12-20T07:40:17;96567.34;;;5.33;nan
34328;BME280;20588;48.840;10.064;2023-12-20T07:42:43;96567.19;;;5.35;nan
34328;BME280;20588;48.840;10.064;2023-12-20T07:45:09;96571.88;;;5.31;nan
34328;BME280;20588;48.840;10.064;2023-12-20T07:47:37;96564.03;;;5.33;nan
34328;BME280;20588;48.840;10.064;2023-12-20T07:50:03;96566.22;;;5.36;nan
34328;BME280;20588;48.840;10.064;2023-12-20T07:52:30;96565.06;;;5.38;nan
34328;BME280;20588;48.840;10.064;2023-12-20T07:54:56;96567.34;;;5.33;nan
34328;BME280;20588;48.840;10.064;2023-12-20T07:57:23;96576.09;;;5.39;nan
34328;BME280;20588;48.840;10.064;2023-12-20T07:59:49;96569.38;;;5.38;nan
34328;BME280;20588;48.840;10.064;2023-12-20T08:02:15;96577.31;;;5.43;nan
34328;BME280;20588;48.840;10.064;2023-12-20T08:04:41;96587.06;;;5.39;nan
34328;BME280;20588;48.840;10.064;2023-12-20T08:07:07;96584.59;;;5.46;nan
34328;BME280;20588;48.840;10.064;2023-12-20T08:09:33;96578.47;;;5.40;nan
34328;BME280;20588;48.840;10.064;2023-12-20T08:12:02;96585.41;;;5.46;nan
34328;BME280;20588;48.840;10.064;2023-12-20T08:14:28;96584.34;;;5.41;nan
34328;BME280;20588;48.840;10.064;2023-12-20T08:16:54;96587.59;;;5.49;nan
34328;BME280;20588;48.840;10.064;2023-12-20T08:19:20;96587.22;;;5.82;nan
34328;BME280;20588;48.840;10.064;2023-12-20T08:21:46;96590.06;;;5.87;nan
34328;BME280;20588;48.840;10.064;2023-12-20T08:24:12;96590.94;;;5.94;nan
34328;BME280;20588;48.840;10.064;2023-12-20T08:26:38;96587.91;;;6.05;nan
34328;BME280;20588;48.840;10.064;2023-12-20T08:29:04;96584.53;;;6.19;nan
34328;BME280;20588;48.840;10.064;2023-12-20T08:31:31;96584.66;;;6.32;nan
34328;BME280;20588;48.840;10.064;2023-12-20T08:33:57;96596.09;;;6.36;nan
34328;BME280;20588;48.840;10.064;2023-12-20T08:36:23;96597.50;;;7.08;nan
34328;BME280;20588;48.840;10.064;2023-12-20T08:38:49;96604.13;;;6.96;nan
34328;BME280;20588;48.840;10.064;2023-12-20T08:41:16;96601.88;;;6.65;nan
34328;BME280;20588;48.840;10.064;2023-12-20T08:43:43;96613.84;;;6.44;nan
34328;BME280;20588;48.840;10.064;2023-12-20T08:46:09;96623.97;;;6.31;nan
34328;BME280;20588;48.840;10.064;2023-12-20T08:48:35;96621.69;;;6.21;nan
34328;BME280;20588;48.840;10.064;2023-12-20T08:51:02;96609.81;;;6.14;nan
34328;BME280;20588;48.840;10.064;2023-12-20T08:53:28;96624.00;;;6.02;nan
34328;BME280;20588;48.840;10.064;2023-12-20T08:55:54;96623.16;;;5.95;nan
34328;BME280;20588;48.840;10.064;2023-12-20T08:58:20;96621.31;;;5.89;nan
34328;BME280;20588;48.840;10.064;2023-12-20T09:00:46;96614.00;;;5.86;nan
34328;BME280;20588;48.840;10.064;2023-12-20T09:03:12;96616.22;;;5.89;nan
34328;BME280;20588;48.840;10.064;2023-12-20T09:05:38;96618.31;;;5.85;nan
34328;BME280;20588;48.840;10.064;2023-12-20T09:08:04;96616.22;;;5.89;nan
34328;BME280;20588;48.840;10.064;2023-12-20T09:10:30;96614.78;;;5.86;nan
34328;BME280;20588;48.840;10.064;2023-12-20T09:12:56;96619.88;;;5.86;nan
34328;BME280;20588;48.840;10.064;2023-12-20T09:15:26;96608.91;;;5.86;nan
34328;BME280;20588;48.840;10.064;2023-12-20T09:17:53;96614.19;;;5.84;nan
34328;BME280;20588;48.840;10.064;2023-12-20T09:20:19;96621.50;;;5.87;nan
34328;BME280;20588;48.840;10.064;2023-12-20T09:22:45;96625.09;;;5.93;nan
34328;BME280;20588;48.840;10.064;2023-12-20T09:25:12;96632.47;;;6.02;nan
34328;BME280;20588;48.840;10.064;2023-12-20T09:27:38;96639.88;;;5.97;nan
34328;BME280;20588;48.840;10.064;2023-12-20T09:30:05;96630.63;;;5.96;nan
34328;BME280;20588;48.840;10.064;2023-12-20T09:32:31;96626.38;;;6.03;nan
34328;BME280;20588;48.840;10.064;2023-12-20T09:34:57;96632.25;;;6.18;nan
34328;BME280;20588;48.840;10.064;2023-12-20T09:37:27;96626.34;;;6.32;nan
34328;BME280;20588;48.840;10.064;2023-12-20T09:39:53;96627.06;;;6.47;nan
34328;BME280;20588;48.840;10.064;2023-12-20T09:42:29;96633.66;;;6.56;nan
34328;BME280;20588;48.840;10.064;2023-12-20T09:45:00;96630.63;;;6.67;nan
34328;BME280;20588;48.840;10.064;2023-12-20T09:47:29;96626.50;;;6.66;nan
34328;BME280;20588;48.840;10.064;2023-12-20T09:49:55;96626.06;;;6.63;nan
34328;BME280;20588;48.840;10.064;2023-12-20T09:52:23;96627.75;;;6.56;nan
34328;BME280;20588;48.840;10.064;2023-12-20T09:54:50;96621.34;;;6.45;nan
34328;BME280;20588;48.840;10.064;2023-12-20T09:57:18;96626.81;;;6.42;nan
34328;BME280;20588;48.840;10.064;2023-12-20T09:59:44;96626.34;;;6.53;nan
34328;BME280;20588;48.840;10.064;2023-12-20T10:02:13;96625.78;;;6.79;nan
34328;BME280;20588;48.840;10.064;2023-12-20T10:04:47;96630.25;;;6.70;nan
34328;BME280;20588;48.840;10.064;2023-12-20T10:07:16;96633.47;;;6.58;nan
34328;BME280;20588;48.840;10.064;2023-12-20T10:09:42;96631.66;;;6.52;nan
34328;BME280;20588;48.840;10.064;2023-12-20T10:12:09;96628.00;;;6.61;nan
34328;BME280;20588;48.840;10.064;2023-12-20T10:14:35;96632.75;;;6.64;nan
34328;BME280;20588;48.840;10.064;2023-12-20T10:17:05;96636.16;;;6.71;nan
34328;BME280;20588;48.840;10.064;2023-12-20T10:19:32;96637.66;;;6.86;nan
34328;BME280;20588;48.840;10.064;2023-12-20T10:21:59;96625.66;;;7.08;nan
34328;BME280;20588;48.840;10.064;2023-12-20T10:24:28;96621.19;;;7.16;nan
34328;BME280;20588;48.840;10.064;2023-12-20T10:27:07;96623.59;;;8.27;nan
34328;BME280;20588;48.840;10.064;2023-12-20T10:29:37;96632.91;;;11.28;nan
34328;BME280;20588;48.840;10.064;2023-12-20T10:32:36;96611.97;;;12.62;nan
34328;BME280;20588;48.840;10.064;2023-12-20T10:35:02;96614.31;;;12.05;nan
34328;BME280;20588;48.840;10.064;2023-12-20T10:37:28;96610.25;;;11.37;nan
34328;BME280;20588;48.840;10.064;2023-12-20T10:39:55;96605.56;;;10.78;nan
34328;BME280;20588;48.840;10.064;2023-12-20T10:42:27;96608.66;;;10.18;nan
34328;BME280;20588;48.840;10.064;2023-12-20T10:44:54;96609.91;;;9.96;nan
34328;BME280;20588;48.840;10.064;2023-12-20T10:47:21;96609.50;;;9.99;nan
34328;BME280;20588;48.840;10.064;2023-12-20T10:49:47;96605.31;;;10.04;nan
34328;BME280;20588;48.840;10.064;2023-12-20T10:52:14;96605.69;;;10.21;nan
34328;BME280;20588;48.840;10.064;2023-12-20T10:54:44;96614.69;;;10.74;nan
34328;BME280;20588;48.840;10.064;2023-12-20T10:57:10;96606.63;;;11.20;nan
34328;BME280;20588;48.840;10.064;2023-12-20T10:59:37;96605.44;;;11.22;nan
34328;BME280;20588;48.840;10.064;2023-12-20T11:02:05;96596.06;;;11.03;nan
34328;BME280;20588;48.840;10.064;2023-12-20T11:04:47;96597.81;;;10.53;nan
34328;BME280;20588;48.840;10.064;2023-12-20T11:07:31;96591.13;;;10.08;nan
34328;BME280;20588;48.840;10.064;2023-12-20T11:12:55;96586.75;;;9.39;nan
34328;BME280;20588;48.840;10.064;2023-12-20T11:15:24;96591.72;;;8.94;nan
34328;BME280;20588;48.840;10.064;2023-12-20T11:17:56;96601.56;;;8.65;nan
34328;BME280;20588;48.840;10.064;2023-12-20T11:20:24;96595.03;;;8.43;nan
34328;BME280;20588;48.840;10.064;2023-12-20T11:22:54;96593.81;;;8.26;nan
34328;BME280;20588;48.840;10.064;2023-12-20T11:25:21;96590.97;;;8.14;nan
34328;BME280;20588;48.840;10.064;2023-12-20T11:28:07;96590.19;;;8.07;nan
34328;BME280;20588;48.840;10.064;2023-12-20T11:30:49;96589.94;;;7.96;nan
34328;BME280;20588;48.840;10.064;2023-12-20T11:33:16;96586.75;;;7.94;nan
34328;BME280;20588;48.840;10.064;2023-12-20T11:35:43;96588.66;;;7.79;nan
34328;BME280;20588;48.840;10.064;2023-12-20T11:38:11;96587.72;;;7.80;nan
34328;BME280;20588;48.840;10.064;2023-12-20T11:40:37;96590.47;;;7.78;nan
34328;BME280;20588;48.840;10.064;2023-12-20T11:43:04;96575.09;;;7.78;nan
34328;BME280;20588;48.840;10.064;2023-12-20T11:45:31;96580.97;;;7.72;nan
34328;BME280;20588;48.840;10.064;2023-12-20T11:47:58;96579.69;;;7.55;nan
34328;BME280;20588;48.840;10.064;2023-12-20T11:50:24;96574.16;;;7.52;nan
34328;BME280;20588;48.840;10.064;2023-12-20T11:52:52;96573.00;;;7.54;nan
34328;BME280;20588;48.840;10.064;2023-12-20T11:55:18;96570.94;;;7.77;nan
34328;BME280;20588;48.840;10.064;2023-12-20T11:57:44;96579.75;;;8.09;nan
34328;BME280;20588;48.840;10.064;2023-12-20T12:00:11;96582.72;;;8.19;nan
34328;BME280;20588;48.840;10.064;2023-12-20T12:02:37;96580.41;;;8.24;nan
34328;BME280;20588;48.840;10.064;2023-12-20T12:05:03;96570.91;;;8.24;nan
34328;BME280;20588;48.840;10.064;2023-12-20T12:07:33;96570.34;;;8.22;nan
34328;BME280;20588;48.840;10.064;2023-12-20T12:09:59;96576.41;;;8.21;nan
34328;BME280;20588;48.840;10.064;2023-12-20T12:12:25;96570.50;;;8.21;nan
34328;BME280;20588;48.840;10.064;2023-12-20T12:14:53;96568.09;;;8.06;nan
34328;BME280;20588;48.840;10.064;2023-12-20T12:17:20;96568.63;;;7.89;nan
34328;BME280;20588;48.840;10.064;2023-12-20T12:19:46;96561.69;;;7.76;nan
34328;BME280;20588;48.840;10.064;2023-12-20T12:22:14;96561.16;;;7.53;nan
34328;BME280;20588;48.840;10.064;2023-12-20T12:24:42;96579.66;;;7.42;nan
34328;BME280;20588;48.840;10.064;2023-12-20T12:27:08;96569.44;;;7.21;nan
34328;BME280;20588;48.840;10.064;2023-12-20T12:29:35;96578.59;;;7.02;nan
34328;BME280;20588;48.840;10.064;2023-12-20T12:32:05;96570.78;;;6.83;nan
34328;BME280;20588;48.840;10.064;2023-12-20T12:34:32;96565.16;;;6.73;nan
34328;BME280;20588;48.840;10.064;2023-12-20T12:36:58;96567.25;;;6.63;nan
34328;BME280;20588;48.840;10.064;2023-12-20T12:39:24;96568.06;;;6.63;nan
34328;BME280;20588;48.840;10.064;2023-12-20T12:41:51;96570.31;;;6.52;nan
34328;BME280;20588;48.840;10.064;2023-12-20T12:44:17;96571.59;;;6.41;nan
34328;BME280;20588;48.840;10.064;2023-12-20T12:46:47;96572.56;;;6.40;nan
34328;BME280;20588;48.840;10.064;2023-12-20T12:49:15;96563.63;;;6.30;nan
34328;BME280;20588;48.840;10.064;2023-12-20T12:51:41;96574.31;;;6.19;nan
34328;BME280;20588;48.840;10.064;2023-12-20T12:54:08;96564.81;;;6.13;nan
34328;BME280;20588;48.840;10.064;2023-12-20T12:56:35;96568.63;;;6.02;nan
34328;BME280;20588;48.840;10.064;2023-12-20T12:59:02;96574.53;;;6.03;nan
34328;BME280;20588;48.840;10.064;2023-12-20T13:01:28;96560.00;;;6.03;nan
34328;BME280;20588;48.840;10.064;2023-12-20T13:03:54;96558.69;;;5.93;nan
34328;BME280;20588;48.840;10.064;2023-12-20T13:06:20;96552.03;;;5.92;nan
34328;BME280;20588;48.840;10.064;2023-12-20T13:08:46;96562.22;;;5.92;nan
34328;BME280;20588;48.840;10.064;2023-12-20T13:11:12;96565.75;;;5.91;nan
34328;BME280;20588;48.840;10.064;2023-12-20T13:13:38;96566.63;;;5.98;nan
34328;BME280;20588;48.840;10.064;2023-12-20T13:16:05;96560.31;;;5.94;nan
34328;BME280;20588;48.840;10.064;2023-12-20T13:18:31;96565.81;;;5.97;nan
34328;BME280;20588;48.840;10.064;2023-12-20T13:20:57;96552.16;;;6.05;nan
34328;BME280;20588;48.840;10.064;2023-12-20T13:23:23;96559.22;;;6.03;nan